Time;durP1;ratioP1;P1;durP2;ratioP2;P2;SDS_P1;SDS_P2;PMS_P1;PMS_P2;Temp;Humidity;BMP_temperature;BMP_pressure;BME280_temperature;BME280_humidity;BME280_pressure;Samples;Min_cycle;Max_cycle;Signal;HPM_P1;HPM_P2
2022/09/09 00:01:19;;;;;;;4.50;2.50;;;;;;;13.57;100.00;95314.72;5087777;28;20122;-74
2022/09/09 00:03:53;;;;;;;6.13;2.70;;;;;;;13.37;100.00;95302.66;5057544;28;20087;-73
2022/09/09 00:06:28;;;;;;;9.43;3.45;;;;;;;13.38;100.00;95304.25;5086983;28;20078;-74
2022/09/09 00:09:15;;;;;;;10.48;2.65;;;;;;;13.41;100.00;95308.94;5080268;28;20038;-74
2022/09/09 00:12:18;;;;;;;4.47;2.58;;;;;;;13.41;100.00;95303.66;5086046;28;20044;-74
2022/09/09 00:14:49;;;;;;;6.43;3.13;;;;;;;13.38;100.00;95309.53;5088884;28;20493;-74
2022/09/09 00:17:39;;;;;;;5.68;2.70;;;;;;;13.41;100.00;95308.94;5087520;28;20127;-75
2022/09/09 00:20:16;;;;;;;8.85;2.88;;;;;;;13.39;100.00;95305.78;5087999;28;20048;-75
2022/09/09 00:23:00;;;;;;;3.78;2.55;;;;;;;13.49;100.00;95305.63;5087413;28;20094;-75
2022/09/09 00:26:30;;;;;;;7.97;3.05;;;;;;;13.39;100.00;95300.50;5077634;28;20044;-75
2022/09/09 00:29:07;;;;;;;6.55;2.70;;;;;;;13.43;100.00;95306.78;5039318;28;20059;-75
2022/09/09 00:31:33;;;;;;;5.72;2.78;;;;;;;13.34;100.00;95294.22;5088370;28;20040;-75
2022/09/09 00:34:09;;;;;;;4.90;2.40;;;;;;;13.41;100.00;95304.44;5087612;28;20047;-73
2022/09/09 00:36:36;;;;;;;5.45;3.00;;;;;;;13.40;100.00;95299.44;5082616;28;20456;-75
2022/09/09 00:39:03;;;;;;;4.20;2.70;;;;;;;13.30;100.00;95309.09;5086780;28;20036;-74
2022/09/09 00:41:35;;;;;;;5.18;2.95;;;;;;;13.38;100.00;95317.47;5087975;28;20517;-74
2022/09/09 00:44:18;;;;;;;6.78;2.80;;;;;;;13.32;100.00;95317.50;5086588;28;20468;-75
2022/09/09 00:46:56;;;;;;;5.75;2.75;;;;;;;13.40;100.00;95315.31;5082840;28;20047;-74
2022/09/09 00:49:38;;;;;;;7.72;3.28;;;;;;;13.41;100.00;95319.53;5087863;28;20055;-75
2022/09/09 00:52:19;;;;;;;5.90;2.45;;;;;;;13.44;100.00;95308.34;5085639;28;20055;-74
2022/09/09 00:55:07;;;;;;;6.03;2.70;;;;;;;13.45;100.00;95304.66;5075915;28;20557;-75
2022/09/09 00:57:35;;;;;;;4.68;2.47;;;;;;;13.51;100.00;95314.81;5089173;28;20032;-75
2022/09/09 01:00:22;;;;;;;4.25;2.70;;;;;;;13.48;100.00;95323.34;5086419;28;20040;-75
2022/09/09 01:03:06;;;;;;;5.25;2.63;;;;;;;13.56;100.00;95321.09;5088907;28;20071;-75
2022/09/09 01:05:38;;;;;;;7.28;2.80;;;;;;;13.56;100.00;95321.09;5088665;28;20517;-75
2022/09/09 01:08:18;;;;;;;8.38;2.67;;;;;;;13.59;100.00;95316.03;5083467;28;20036;-75
2022/09/09 01:10:56;;;;;;;6.18;2.40;;;;;;;13.53;100.00;95317.16;5078649;28;20041;-75
2022/09/09 01:13:30;;;;;;;9.20;2.70;;;;;;;13.59;100.00;95321.31;5076371;28;20071;-74
2022/09/09 01:16:02;;;;;;;4.53;2.70;;;;;;;13.54;100.00;95318.75;5088726;28;20097;-75
2022/09/09 01:18:51;;;;;;;6.32;3.10;;;;;;;13.50;100.00;95310.63;5087578;28;20391;-75
2022/09/09 01:21:30;;;;;;;5.13;2.60;;;;;;;13.57;100.00;95318.16;5085616;28;20414;-75
2022/09/09 01:23:55;;;;;;;8.25;2.90;;;;;;;13.54;100.00;95312.69;5079746;28;20043;-75
2022/09/09 01:26:28;;;;;;;4.38;2.50;;;;;;;13.58;100.00;95314.44;5088167;28;20097;-76
2022/09/09 01:28:53;;;;;;;6.53;2.83;;;;;;;13.57;100.00;95315.50;5088522;28;20040;-75
2022/09/09 01:31:40;;;;;;;8.05;2.78;;;;;;;13.65;100.00;95314.84;5086375;28;20040;-74
2022/09/09 01:34:14;;;;;;;7.88;2.67;;;;;;;13.73;100.00;95320.53;5088542;28;20040;-75
2022/09/09 01:36:59;;;;;;;7.53;2.60;;;;;;;13.66;100.00;95311.13;5088165;28;20089;-75
2022/09/09 01:39:26;;;;;;;5.88;2.60;;;;;;;13.66;100.00;95316.41;5086036;28;20060;-74
2022/09/09 01:41:52;;;;;;;4.00;2.42;;;;;;;13.58;100.00;95311.78;5085142;28;20157;-75
2022/09/09 01:44:19;;;;;;;3.97;2.78;;;;;;;13.45;100.00;95304.66;5078078;28;20128;-75
2022/09/09 01:46:44;;;;;;;9.50;2.83;;;;;;;13.40;100.00;95307.38;5091810;28;20036;-74
2022/09/09 01:49:10;;;;;;;5.72;2.72;;;;;;;13.49;100.00;95310.91;5091861;28;20069;-75
2022/09/09 01:51:38;;;;;;;7.57;2.67;;;;;;;13.43;100.00;95312.06;5085672;28;20041;-75
2022/09/09 01:54:05;;;;;;;6.18;2.65;;;;;;;13.37;100.00;95313.25;5090812;28;20506;-75
2022/09/09 01:57:07;;;;;;;7.20;2.53;;;;;;;13.32;100.00;95314.09;5090841;28;20051;-75
2022/09/09 02:00:11;;;;;;;8.25;2.50;;;;;;;13.39;100.00;95305.78;5090237;28;20044;-75
2022/09/09 02:02:58;;;;;;;9.95;3.00;;;;;;;13.41;100.00;95314.22;5028301;28;20057;-75
2022/09/09 02:05:39;;;;;;;5.15;2.30;;;;;;;13.36;100.00;95311.66;5087781;28;20536;-74
2022/09/09 02:08:15;;;;;;;5.53;2.60;;;;;;;13.27;100.00;95314.94;5084510;28;20036;-75
2022/09/09 02:10:58;;;;;;;8.88;2.67;;;;;;;13.21;100.00;95305.53;5090823;28;20047;-75
2022/09/09 02:13:25;;;;;;;7.30;2.75;;;;;;;13.15;100.00;95301.44;5084416;28;20085;-74
2022/09/09 02:16:16;;;;;;;4.70;2.65;;;;;;;13.20;100.00;95296.03;5091568;28;20052;-75
2022/09/09 02:18:51;;;;;;;4.72;2.58;;;;;;;13.29;100.00;95291.66;5086175;28;20052;-75
2022/09/09 02:21:17;;;;;;;4.20;2.58;;;;;;;13.22;100.00;95293.91;5089398;28;20048;-75
2022/09/09 02:23:46;;;;;;;8.18;2.55;;;;;;;13.31;100.00;95294.78;5090876;28;20040;-74
2022/09/09 02:26:19;;;;;;;4.68;2.45;;;;;;;13.26;100.00;95289.63;5084912;28;20040;-74
2022/09/09 02:28:46;;;;;;;3.97;2.45;;;;;;;13.18;100.00;95304.25;5089642;28;20383;-74
2022/09/09 02:31:14;;;;;;;5.03;2.58;;;;;;;13.24;100.00;95304.97;5085783;28;20049;-75
2022/09/09 02:33:47;;;;;;;4.57;2.47;;;;;;;13.25;100.00;95311.81;5091016;28;20743;-75
2022/09/09 02:36:16;;;;;;;6.88;2.55;;;;;;;13.21;100.00;95313.47;5086778;28;20082;-74
2022/09/09 02:38:53;;;;;;;4.80;2.53;;;;;;;13.21;100.00;95294.97;5087072;28;20045;-75
2022/09/09 02:41:37;;;;;;;4.50;2.65;;;;;;;13.26;100.00;95292.25;5086761;28;20048;-75
2022/09/09 02:44:22;;;;;;;4.50;2.35;;;;;;;13.28;100.00;95290.09;5083646;28;20032;-74
2022/09/09 02:47:07;;;;;;;5.90;2.53;;;;;;;13.29;100.00;95285.59;5090885;28;20044;-75
2022/09/09 02:49:38;;;;;;;4.80;2.42;;;;;;;13.30;100.00;95287.97;5081547;28;20040;-74
2022/09/09 02:52:11;;;;;;;4.93;2.33;;;;;;;13.24;100.00;95289.09;5089691;28;20063;-75
2022/09/09 02:54:40;;;;;;;6.30;2.50;;;;;;;13.20;100.00;95288.13;5088996;28;20043;-75
2022/09/09 02:57:17;;;;;;;6.45;2.60;;;;;;;13.25;100.00;95290.69;5086290;28;20040;-74
2022/09/09 02:59:44;;;;;;;3.40;2.28;;;;;;;13.22;100.00;95291.25;5093299;28;20111;-75
2022/09/09 03:02:11;;;;;;;4.13;2.45;;;;;;;13.22;100.00;95293.91;5083608;28;20039;-75
2022/09/09 03:04:37;;;;;;;4.30;2.30;;;;;;;13.28;100.00;95284.81;5087559;28;20502;-75
2022/09/09 03:07:03;;;;;;;3.53;2.10;;;;;;;13.22;100.00;95285.97;5102117;28;20064;-75
2022/09/09 03:09:29;;;;;;;5.93;2.20;;;;;;;13.25;100.00;95282.75;5090489;28;20042;-75
2022/09/09 03:11:55;;;;;;;4.10;2.35;;;;;;;13.29;100.00;95291.66;5088923;28;20043;-75
2022/09/09 03:14:24;;;;;;;4.10;2.40;;;;;;;13.24;100.00;95289.09;5102521;28;20408;-75
2022/09/09 03:16:50;;;;;;;3.65;2.40;;;;;;;13.18;100.00;95282.34;5092714;28;20062;-74
2022/09/09 03:19:16;;;;;;;3.95;2.40;;;;;;;13.22;100.00;95275.41;5089599;28;20040;-75
2022/09/09 03:21:42;;;;;;;4.97;2.33;;;;;;;13.28;100.00;95279.53;5099146;28;20046;-75
2022/09/09 03:24:07;;;;;;;6.05;2.38;;;;;;;13.30;100.00;95282.69;5098181;28;20043;-75
2022/09/09 03:26:33;;;;;;;6.68;2.35;;;;;;;13.15;100.00;95277.66;5104868;28;20036;-75
2022/09/09 03:29:00;;;;;;;3.60;2.35;;;;;;;13.11;100.00;95274.03;5088981;28;20043;-75
2022/09/09 03:31:29;;;;;;;4.82;2.55;;;;;;;13.12;100.00;95280.88;5096628;28;20040;-75
2022/09/09 03:33:57;;;;;;;4.82;2.38;;;;;;;13.08;100.00;95279.88;5089894;28;20043;-75
2022/09/09 03:36:24;;;;;;;5.05;2.38;;;;;;;13.03;100.00;95277.31;5104743;28;20416;-75
2022/09/09 03:38:50;;;;;;;6.32;2.50;;;;;;;12.95;100.00;95276.13;5089109;28;20051;-76
2022/09/09 03:41:15;;;;;;;4.55;2.30;;;;;;;12.88;100.00;95276.50;5088520;28;20069;-76
2022/09/09 03:43:41;;;;;;;6.07;2.40;;;;;;;12.83;100.00;95279.25;5089369;28;20048;-75
2022/09/09 03:46:07;;;;;;;5.78;2.58;;;;;;;12.78;100.00;95277.44;5095514;28;20031;-75
2022/09/09 03:48:32;;;;;;;4.40;2.40;;;;;;;12.78;100.00;95282.72;5096064;28;20036;-76
2022/09/09 03:51:00;;;;;;;2.90;2.20;;;;;;;12.71;100.00;95276.25;5092604;28;20101;-74
2022/09/09 03:53:26;;;;;;;4.55;2.38;;;;;;;12.67;100.00;95275.25;5101272;28;20039;-75
2022/09/09 03:55:59;;;;;;;3.80;2.40;;;;;;;12.74;100.00;95286.25;5110794;28;20088;-75
2022/09/09 03:58:26;;;;;;;5.72;2.38;;;;;;;12.77;100.00;95285.66;5098160;28;20048;-74
2022/09/09 04:01:00;;;;;;;6.70;2.60;;;;;;;12.83;100.00;95276.59;5093295;28;20055;-75
2022/09/09 04:03:27;;;;;;;5.97;2.35;;;;;;;12.76;100.00;95278.81;5090719;28;20717;-76
2022/09/09 04:05:53;;;;;;;4.93;2.10;;;;;;;12.86;100.00;95277.84;5095666;28;20032;-75
2022/09/09 04:08:20;;;;;;;4.22;2.30;;;;;;;12.84;100.00;95275.50;5104570;28;20075;-75
2022/09/09 04:10:47;;;;;;;3.92;2.10;;;;;;;12.81;100.00;95276.09;5088693;28;20456;-75
2022/09/09 04:13:16;;;;;;;5.15;2.30;;;;;;;12.84;100.00;95280.78;5099054;28;20042;-76
2022/09/09 04:15:43;;;;;;;5.18;2.33;;;;;;;12.85;100.00;95271.81;5096286;28;20044;-75
2022/09/09 04:18:08;;;;;;;3.72;2.30;;;;;;;12.78;100.00;95263.47;5095363;28;20063;-75
2022/09/09 04:20:35;;;;;;;4.95;2.40;;;;;;;12.86;100.00;95268.09;5099268;28;20047;-75
2022/09/09 04:23:01;;;;;;;4.90;2.08;;;;;;;12.86;100.00;95267.28;5089688;28;20048;-76
2022/09/09 04:25:26;;;;;;;4.78;2.28;;;;;;;12.81;100.00;95265.53;5102639;28;20048;-76
2022/09/09 04:27:56;;;;;;;3.83;1.95;;;;;;;12.84;100.00;95249.09;5096412;28;20623;-75
2022/09/09 04:30:22;;;;;;;5.05;2.28;;;;;;;12.79;100.00;95241.28;5089073;28;20047;-76
2022/09/09 04:32:47;;;;;;;7.63;2.22;;;;;;;12.69;100.00;95241.44;5089859;28;20043;-76
2022/09/09 04:35:13;;;;;;;5.18;2.25;;;;;;;12.60;100.00;95249.25;5099755;28;20033;-76
2022/09/09 04:37:39;;;;;;;5.63;2.28;;;;;;;12.62;100.00;95253.16;5079310;28;20036;-75
2022/09/09 04:40:05;;;;;;;5.63;2.35;;;;;;;12.63;100.00;95246.81;5093915;28;20046;-75
2022/09/09 04:42:35;;;;;;;3.83;2.08;;;;;;;12.55;100.00;95247.44;5100975;28;20514;-75
2022/09/09 04:45:01;;;;;;;4.07;2.17;;;;;;;12.43;100.00;95249.75;5104751;28;20047;-76
2022/09/09 04:47:27;;;;;;;3.97;2.03;;;;;;;12.51;100.00;95246.44;5105028;28;20169;-74
2022/09/09 04:49:54;;;;;;;5.00;2.10;;;;;;;12.46;100.00;95254.47;5090772;28;20036;-74
2022/09/09 04:52:20;;;;;;;4.18;2.40;;;;;;;12.49;100.00;95248.59;5090973;28;20451;-75
2022/09/09 04:54:45;;;;;;;4.65;2.20;;;;;;;12.52;100.00;95252.53;5099465;28;20043;-75
2022/09/09 04:57:11;;;;;;;4.15;2.40;;;;;;;12.44;100.00;95246.84;5086102;28;20093;-75
2022/09/09 04:59:39;;;;;;;6.97;2.38;;;;;;;12.41;100.00;95236.06;5085226;28;20044;-75
2022/09/09 05:02:05;;;;;;;4.43;2.40;;;;;;;12.42;100.00;95232.34;5087262;28;20044;-76
2022/09/09 05:04:31;;;;;;;6.63;2.50;;;;;;;12.55;100.00;95246.69;5093692;28;20036;-75
2022/09/09 05:06:56;;;;;;;6.93;2.53;;;;;;;12.56;100.00;95246.38;5101126;28;20410;-76
2022/09/09 05:09:22;;;;;;;7.43;2.25;;;;;;;12.56;100.00;95269.38;5092394;28;20054;-76
2022/09/09 05:11:48;;;;;;;3.35;2.20;;;;;;;12.63;100.00;95260.00;5099803;28;20035;-75
2022/09/09 05:14:14;;;;;;;8.20;2.50;;;;;;;12.68;100.00;95261.00;5084900;28;20036;-77
2022/09/09 05:16:40;;;;;;;6.43;2.40;;;;;;;12.67;100.00;95259.41;5095143;28;20447;-75
2022/09/09 05:19:07;;;;;;;6.57;2.30;;;;;;;12.61;100.00;95259.53;5107497;28;20061;-75
2022/09/09 05:21:33;;;;;;;5.70;2.35;;;;;;;12.74;100.00;95265.13;5091754;28;20051;-75
2022/09/09 05:24:00;;;;;;;8.55;2.17;;;;;;;12.86;100.00;95273.38;5093413;28;20037;-75
2022/09/09 05:26:25;;;;;;;5.13;2.35;;;;;;;12.87;100.00;95269.66;5090187;28;20524;-75
2022/09/09 05:28:51;;;;;;;8.88;2.53;;;;;;;12.86;100.00;95268.09;5097054;28;20043;-74
2022/09/09 05:31:18;;;;;;;5.25;2.20;;;;;;;12.88;100.00;95265.94;5089573;28;20119;-74
2022/09/09 05:33:45;;;;;;;4.13;2.40;;;;;;;12.85;100.00;95269.16;5098220;28;20103;-75
2022/09/09 05:36:16;;;;;;;6.28;2.20;;;;;;;12.90;100.00;95261.16;5100937;28;20040;-76
2022/09/09 05:38:43;;;;;;;5.43;2.10;;;;;;;12.93;100.00;95263.22;5094708;28;20055;-75
2022/09/09 05:41:11;;;;;;;8.85;2.70;;;;;;;12.87;100.00;95269.66;5090648;28;20036;-75
2022/09/09 05:43:38;;;;;;;9.45;2.40;;;;;;;12.94;100.00;95267.44;5091758;28;20046;-75
2022/09/09 05:46:04;;;;;;;4.65;2.42;;;;;;;13.03;100.00;95279.97;5091038;28;20039;-75
2022/09/09 05:48:32;;;;;;;7.57;2.33;;;;;;;12.99;100.00;95272.63;5098182;28;20051;-75
2022/09/09 05:50:59;;;;;;;6.05;2.33;;;;;;;13.07;100.00;95265.88;5103275;28;20039;-75
2022/09/09 05:53:26;;;;;;;6.78;2.25;;;;;;;13.12;100.00;95270.31;5084543;28;20044;-75
2022/09/09 05:56:01;;;;;;;5.50;2.30;;;;;;;13.11;100.00;95266.09;5100261;28;20040;-75
2022/09/09 05:58:27;;;;;;;5.47;2.60;;;;;;;13.15;100.00;95269.72;5088153;28;20040;-75
2022/09/09 06:00:53;;;;;;;4.70;2.30;;;;;;;13.26;100.00;95272.97;5096685;28;20036;-75
2022/09/09 06:03:23;;;;;;;3.80;2.00;;;;;;;13.34;100.00;95283.66;5088704;28;20502;-75
2022/09/09 06:05:57;;;;;;;4.47;2.17;;;;;;;13.42;100.00;95284.06;5093700;28;20398;-75
2022/09/09 06:08:22;;;;;;;8.23;2.25;;;;;;;13.42;100.00;95286.69;5087608;28;20040;-75
2022/09/09 06:10:48;;;;;;;3.38;2.10;;;;;;;13.48;100.00;95282.91;5081788;28;20556;-76
2022/09/09 06:13:13;;;;;;;7.13;2.10;;;;;;;13.55;100.00;95278.03;5091701;28;20032;-75
2022/09/09 06:15:40;;;;;;;5.13;2.05;;;;;;;13.63;100.00;95280.00;5094497;28;20036;-75
2022/09/09 06:18:05;;;;;;;6.28;2.05;;;;;;;13.69;100.00;95284.09;5088284;28;20486;-77
2022/09/09 06:20:31;;;;;;;6.50;2.28;;;;;;;13.76;100.00;95283.69;5088176;28;20059;-76
2022/09/09 06:22:57;;;;;;;3.65;1.85;;;;;;;13.85;100.00;95283.78;5086252;28;20044;-76
2022/09/09 06:25:24;;;;;;;4.30;1.80;;;;;;;13.86;100.00;95277.41;5090817;28;20069;-76
2022/09/09 06:27:49;;;;;;;3.47;1.73;;;;;;;13.90;100.00;95278.38;5088577;28;20089;-75
2022/09/09 06:30:17;;;;;;;4.22;1.75;;;;;;;13.93;100.00;95277.03;5093969;28;20080;-75
2022/09/09 06:32:42;;;;;;;3.22;1.63;;;;;;;13.94;100.00;95279.38;5091085;28;20105;-77
2022/09/09 06:35:08;;;;;;;4.10;1.60;;;;;;;13.97;100.00;95273.47;5105535;28;20489;-75
2022/09/09 06:37:33;;;;;;;1.80;1.52;;;;;;;14.00;100.00;95272.88;5091226;28;20111;-74
2022/09/09 06:39:59;;;;;;;4.47;1.80;;;;;;;14.09;100.00;95280.13;5090359;28;20496;-74
2022/09/09 06:42:24;;;;;;;5.53;1.88;;;;;;;14.11;100.00;95283.28;5089017;28;20059;-74
2022/09/09 06:44:50;;;;;;;4.57;1.75;;;;;;;14.25;100.00;95280.59;5098340;28;20407;-73
2022/09/09 06:47:15;;;;;;;5.63;1.80;;;;;;;14.27;100.00;95276.56;5086554;28;20050;-75
2022/09/09 06:49:40;;;;;;;3.30;1.65;;;;;;;14.37;100.00;95291.44;5095533;28;20131;-76
2022/09/09 06:52:08;;;;;;;3.35;1.65;;;;;;;14.33;100.00;95280.66;5088580;28;20475;-78
2022/09/09 06:54:37;;;;;;;3.88;1.70;;;;;;;14.41;100.00;95286.31;5087091;28;20489;-76
2022/09/09 06:57:02;;;;;;;2.65;1.55;;;;;;;14.53;100.00;95289.22;5085831;28;20137;-76
2022/09/09 06:59:30;;;;;;;1.52;1.33;;;;;;;14.54;100.00;95290.81;5087064;28;20036;-76
2022/09/09 07:01:56;;;;;;;3.03;1.60;;;;;;;14.57;100.00;95290.22;5091409;28;20028;-76
2022/09/09 07:04:22;;;;;;;5.30;1.65;;;;;;;14.58;100.00;95286.44;5092344;28;20445;-76
2022/09/09 07:06:47;;;;;;;3.65;1.60;;;;;;;14.58;100.00;95296.28;5089693;28;20033;-76
2022/09/09 07:09:15;;;;;;;7.45;1.90;;;;;;;14.66;100.00;95293.72;5095462;28;20036;-76
2022/09/09 07:11:44;;;;;;;4.00;1.90;;;;;;;14.70;100.00;95289.41;5097447;28;20529;-76
2022/09/09 07:14:13;;;;;;;3.03;1.70;;;;;;;14.69;100.00;95295.75;5086741;28;20040;-77
2022/09/09 07:16:42;;;;;;;2.40;1.45;;;;;;;14.66;100.00;95293.72;5095403;28;20036;-77
2022/09/09 07:19:08;;;;;;;3.42;1.70;;;;;;;14.69;100.00;95293.13;5089608;28;20063;-77
2022/09/09 07:21:34;;;;;;;3.03;1.52;;;;;;;14.69;100.00;95298.41;5096958;28;20044;-77
2022/09/09 07:24:00;;;;;;;3.92;1.70;;;;;;;14.76;100.00;95308.59;5088239;28;20401;-78
2022/09/09 07:26:29;;;;;;;4.45;1.80;;;;;;;14.72;100.00;95313.72;5106059;28;20085;-78
2022/09/09 07:28:58;;;;;;;2.20;1.60;;;;;;;14.72;100.00;95326.97;5091320;28;20135;-77
2022/09/09 07:31:23;;;;;;;4.68;1.90;;;;;;;14.86;100.00;95336.72;5089706;28;20126;-81
2022/09/09 07:33:49;;;;;;;2.63;1.70;;;;;;;14.91;100.00;95339.25;5092605;27;20815;-77
2022/09/09 07:36:17;;;;;;;4.82;1.90;;;;;;;14.96;100.00;95333.84;5092044;28;20048;-76
2022/09/09 07:38:49;;;;;;;4.93;1.80;;;;;;;15.01;100.00;95336.38;5090928;28;20044;-77
2022/09/09 07:41:19;;;;;;;2.40;1.50;;;;;;;15.06;100.00;95338.88;5089649;28;20502;-75
2022/09/09 07:43:47;;;;;;;2.50;1.60;;;;;;;15.16;100.00;95348.47;5091519;28;20039;-76
2022/09/09 07:46:14;;;;;;;1.90;1.23;;;;;;;15.19;100.00;95345.19;5100083;28;20051;-75
2022/09/09 07:48:46;;;;;;;3.40;1.60;;;;;;;15.29;100.00;95352.13;5087871;28;20055;-76
2022/09/09 07:51:17;;;;;;;3.25;1.58;;;;;;;15.39;100.00;95351.88;5087889;28;20051;-72
2022/09/09 07:53:43;;;;;;;2.30;1.40;;;;;;;15.47;100.00;95357.53;5090065;28;20040;-75
2022/09/09 07:56:12;;;;;;;4.43;2.13;;;;;;;15.43;100.00;95357.38;5083371;28;20040;-78
2022/09/09 07:58:38;;;;;;;4.10;1.80;;;;;;;15.48;100.00;95364.41;5080897;28;20040;-75
2022/09/09 08:01:10;;;;;;;3.45;1.77;;;;;;;15.45;100.00;95355.19;5083424;28;20044;-76
2022/09/09 08:03:35;;;;;;;3.80;1.60;;;;;;;15.51;100.00;95358.50;5085253;28;20043;-76
2022/09/09 08:06:03;;;;;;;3.75;1.88;;;;;;;15.65;100.00;95353.88;5094494;28;20051;-76
2022/09/09 08:08:29;;;;;;;4.97;1.88;;;;;;;15.77;100.00;95356.75;5095325;28;20032;-76
2022/09/09 08:11:08;;;;;;;3.78;1.70;;;;;;;15.81;100.00;95362.25;5091703;28;20063;-75
2022/09/09 08:13:36;;;;;;;6.60;1.50;;;;;;;15.87;100.00;95365.53;5089685;27;20036;-76
2022/09/09 08:16:13;;;;;;;4.70;1.60;;;;;;;15.98;100.00;95366.06;5092702;28;20629;-77
2022/09/09 08:18:39;;;;;;;6.45;1.77;;;;;;;16.02;100.00;95367.00;5080289;28;20380;-76
2022/09/09 08:21:15;;;;;;;2.40;1.52;;;;;;;16.17;100.00;95384.38;5085503;28;20055;-77
2022/09/09 08:23:42;;;;;;;2.38;1.80;;;;;;;16.21;100.00;95385.34;5093631;28;20044;-79
2022/09/09 08:26:16;;;;;;;2.20;1.52;;;;;;;16.20;100.00;95389.09;5103376;28;20051;-79
2022/09/09 08:28:42;;;;;;;3.90;1.83;;;;;;;16.25;100.00;95381.00;5084786;28;20063;-75
2022/09/09 08:31:13;;;;;;;4.57;1.95;;;;;;;16.45;100.00;95380.41;5084013;28;20094;-76
2022/09/09 08:33:39;;;;;;;3.00;1.60;;;;;;;16.55;100.00;95386.50;5096831;28;20038;-76
2022/09/09 08:36:06;;;;;;;4.13;1.70;;;;;;;16.58;100.00;95391.22;5093286;28;20051;-77
2022/09/09 08:38:33;;;;;;;2.08;1.70;;;;;;;16.61;100.00;95383.38;5087991;28;20044;-75
2022/09/09 08:41:10;;;;;;;2.92;2.00;;;;;;;16.45;100.00;95391.03;5080535;28;20446;-77
2022/09/09 08:43:36;;;;;;;3.30;1.75;;;;;;;16.43;100.00;95397.72;5084693;28;20040;-76
2022/09/09 08:46:29;;;;;;;4.65;1.80;;;;;;;16.40;100.00;95393.03;5074845;28;20051;-76
2022/09/09 08:49:01;;;;;;;2.75;1.60;;;;;;;16.36;100.00;95398.16;5086590;28;20047;-75
2022/09/09 08:51:30;;;;;;;3.08;1.92;;;;;;;16.29;100.00;95392.53;5086874;28;20044;-75
2022/09/09 08:53:58;;;;;;;5.85;1.90;;;;;;;16.28;100.00;95391.00;5087597;28;20043;-76
2022/09/09 08:56:25;;;;;;;6.22;2.13;;;;;;;16.31;100.00;95395.69;5085539;28;20549;-75
2022/09/09 08:58:53;;;;;;;2.17;1.60;;;;;;;16.26;100.00;95387.84;5088379;28;20124;-75
2022/09/09 09:01:39;;;;;;;3.13;1.83;;;;;;;16.21;100.00;95395.97;5075004;28;20041;-75
2022/09/09 09:04:22;;;;;;;4.22;1.75;;;;;;;16.15;100.00;95386.56;5087075;28;20064;-76
2022/09/09 09:07:02;;;;;;;4.07;2.30;;;;;;;16.15;100.00;95397.19;5087120;28;20087;-76
2022/09/09 09:09:37;;;;;;;3.47;1.88;;;;;;;16.06;100.00;95384.69;5092615;28;20047;-76
2022/09/09 09:12:15;;;;;;;4.53;2.40;;;;;;;16.11;100.00;95392.47;5091542;28;20067;-75
2022/09/09 09:14:43;;;;;;;3.10;1.83;;;;;;;16.25;100.00;95386.28;5090289;28;20039;-77
2022/09/09 09:17:14;;;;;;;3.90;1.95;;;;;;;16.31;100.00;95390.38;5093650;28;20044;-76
2022/09/09 09:19:41;;;;;;;5.50;2.10;;;;;;;16.30;100.00;95393.34;5085854;28;20563;-80
2022/09/09 09:22:14;;;;;;;4.63;2.00;;;;;;;16.36;100.00;95392.88;5097977;28;20040;-79
2022/09/09 09:24:57;;;;;;;4.88;2.17;;;;;;;16.34;100.00;95395.06;5101549;28;20035;-76
2022/09/09 09:27:32;;;;;;;5.07;1.90;;;;;;;16.44;100.00;95400.06;5106132;28;20123;-76
2022/09/09 09:30:12;;;;;;;3.13;1.80;;;;;;;16.54;100.00;95392.91;5093366;28;20565;-83
2022/09/09 09:32:40;;;;;;;4.93;1.88;;;;;;;16.71;100.00;95387.63;5084887;28;20039;-75
2022/09/09 09:35:13;;;;;;;5.43;1.90;;;;;;;16.64;100.00;95387.31;5094795;28;20046;-75
2022/09/09 09:37:41;;;;;;;4.90;1.80;;;;;;;16.60;100.00;95397.00;5100623;28;20413;-75
2022/09/09 09:40:16;;;;;;;3.28;1.77;;;;;;;16.50;100.00;95402.59;5085070;28;20040;-76
2022/09/09 09:42:54;;;;;;;5.22;1.88;;;;;;;16.49;100.00;95406.34;5077408;28;20578;-75
2022/09/09 09:45:45;;;;;;;4.60;1.98;;;;;;;16.52;100.00;95400.41;5093810;28;20417;-76
2022/09/09 09:48:13;;;;;;;3.08;1.63;;;;;;;16.44;100.00;95391.34;5086875;28;20048;-76
2022/09/09 09:51:00;;;;;;;2.05;1.50;;;;;;;16.37;100.00;95405.06;5098340;28;20039;-76
2022/09/09 09:53:29;;;;;;;5.00;2.00;;;;;;;16.25;100.00;95404.88;5086716;28;20036;-75
2022/09/09 09:56:06;;;;;;;4.57;2.00;;;;;;;16.33;100.00;95409.41;5084053;28;20571;-76
2022/09/09 09:58:54;;;;;;;2.28;1.60;;;;;;;16.30;100.00;95410.03;5087720;28;20160;-74
2022/09/09 10:01:27;;;;;;;2.50;1.75;;;;;;;16.30;100.00;95410.03;5081011;28;20055;-76
2022/09/09 10:04:13;;;;;;;4.77;1.90;;;;;;;16.25;100.00;95410.19;5085481;28;20040;-75
2022/09/09 10:06:39;;;;;;;3.65;1.70;;;;;;;16.29;100.00;95403.16;5079475;28;20281;-76
2022/09/09 10:09:32;;;;;;;5.07;2.28;;;;;;;16.31;100.00;95401.00;5096623;28;20043;-75
2022/09/09 10:12:26;;;;;;;3.25;1.77;;;;;;;16.26;100.00;95401.13;5081423;28;20089;-76
2022/09/09 10:15:13;;;;;;;3.70;1.90;;;;;;;16.36;100.00;95398.16;5100712;28;20048;-81
2022/09/09 10:18:18;;;;;;;3.92;1.83;;;;;;;16.36;100.00;95402.72;5103680;28;20040;-76
2022/09/09 10:20:44;;;;;;;3.07;1.80;;;;;;;16.23;100.00;95407.84;5081093;28;20143;-75
2022/09/09 10:23:47;;;;;;;3.45;1.52;;;;;;;16.10;100.00;95406.06;5104040;28;20291;-77
2022/09/09 10:26:34;;;;;;;3.42;1.77;;;;;;;15.94;100.00;95403.81;5096896;28;20525;-75
2022/09/09 10:29:44;;;;;;;2.72;1.67;;;;;;;15.89;100.00;95403.19;5094156;28;20040;-75
2022/09/09 10:32:35;;;;;;;2.85;1.70;;;;;;;16.01;100.00;95392.75;5095429;28;20056;-75
2022/09/09 10:35:25;;;;;;;3.03;1.70;;;;;;;16.06;100.00;95400.59;5099243;27;20043;-75
2022/09/09 10:38:13;;;;;;;4.57;1.70;;;;;;;16.20;100.00;95399.69;5092910;28;20039;-75
2022/09/09 10:40:51;;;;;;;2.90;1.75;;;;;;;16.29;100.00;95403.16;5099106;28;20089;-75
2022/09/09 10:43:16;;;;;;;5.20;2.05;;;;;;;16.32;100.00;95405.22;5084202;28;20071;-75
2022/09/09 10:45:48;;;;;;;2.90;1.50;;;;;;;16.29;100.00;95405.81;5105439;28;20051;-75
2022/09/09 10:48:30;;;;;;;4.32;1.90;;;;;;;16.28;100.00;95412.22;5081197;28;20135;-75
2022/09/09 10:51:22;;;;;;;3.38;1.58;;;;;;;16.24;100.00;95405.97;5105662;28;20040;-76
2022/09/09 10:54:41;;;;;;;2.45;1.80;;;;;;;16.23;100.00;95404.41;5095827;27;20080;-75
2022/09/09 10:57:25;;;;;;;3.65;1.85;;;;;;;16.28;100.00;95401.59;5065359;28;20041;-76
2022/09/09 10:59:56;;;;;;;3.70;1.85;;;;;;;16.30;100.00;95394.09;5060956;28;20052;-75
2022/09/09 11:02:28;;;;;;;2.63;1.70;;;;;;;16.29;100.00;95403.16;5081542;28;20056;-75
2022/09/09 11:05:01;;;;;;;4.50;1.77;;;;;;;16.44;100.00;95400.06;5090491;28;20485;-77
2022/09/09 11:07:38;;;;;;;4.10;1.90;;;;;;;16.51;100.00;95398.88;5089870;28;20044;-76
2022/09/09 11:10:16;;;;;;;2.17;1.40;;;;;;;16.66;100.00;95395.75;5078724;28;20173;-76
2022/09/09 11:12:47;;;;;;;4.78;1.63;;;;;;;16.82;100.00;95398.72;5083705;28;20036;-75
2022/09/09 11:15:30;;;;;;;4.30;1.67;;;;;;;16.96;100.00;95404.69;5090464;28;20111;-75
2022/09/09 11:18:01;;;;;;;10.13;1.85;;;;;;;17.06;100.00;95392.19;5088193;28;20047;-76
2022/09/09 11:20:27;;;;;;;6.07;1.88;;;;;;;17.06;100.00;95403.59;5082331;28;20048;-77
2022/09/09 11:23:05;;;;;;;3.92;1.77;;;;;;;17.04;100.00;95399.69;5086226;28;20040;-75
2022/09/09 11:25:43;;;;;;;2.75;1.70;;;;;;;17.29;100.00;95398.91;5082256;28;20242;-76
2022/09/09 11:28:32;;;;;;;5.72;1.60;;;;;;;17.30;100.00;95399.69;5079017;28;20147;-75
2022/09/09 11:31:15;;;;;;;4.00;1.60;;;;;;;17.45;100.00;95393.88;5088108;28;20051;-76
2022/09/09 11:34:08;;;;;;;4.20;1.60;;;;;;;17.25;100.00;95389.22;5089625;28;20177;-75
2022/09/09 11:37:02;;;;;;;4.28;1.33;;;;;;;17.28;100.00;95393.91;5086127;28;20032;-75
2022/09/09 11:39:46;;;;;;;3.53;1.10;;;;;;;17.23;100.00;95396.75;5076679;28;20075;-74
2022/09/09 11:42:11;;;;;;;1.48;1.00;;;;;;;17.21;100.00;95404.22;5085145;28;20070;-75
2022/09/09 11:44:37;;;;;;;1.65;1.10;;;;;;;17.33;100.00;95390.31;5084665;28;20478;-76
2022/09/09 11:47:02;;;;;;;4.55;1.40;;;;;;;17.43;100.00;95390.75;5090448;28;20046;-75
2022/09/09 11:49:41;;;;;;;7.25;2.95;;;;;;;17.90;100.00;95386.56;5089516;28;20040;-75